createdAt,value
2023-01-01T00:02:25.470Z,66.50
2023-01-01T00:04:52.379Z,68.90
2023-01-01T00:07:19.276Z,79.50
2023-01-01T00:10:04.484Z,67.80
2023-01-01T00:12:32.664Z,62.90
2023-01-01T00:14:59.465Z,61.70
2023-01-01T00:17:26.354Z,70.20
2023-01-01T00:19:53.062Z,69.20
2023-01-01T00:25:06.909Z,58.10
2023-01-01T00:27:33.960Z,55.20
2023-01-01T00:30:00.702Z,55.00
2023-01-01T00:32:27.609Z,52.60
2023-01-01T00:34:54.426Z,52.60
2023-01-01T00:37:21.293Z,48.60
2023-01-01T00:39:48.212Z,48.10
2023-01-01T00:42:15.057Z,50.60
2023-01-01T00:44:41.869Z,49.70
2023-01-01T00:47:08.747Z,48.70
2023-01-01T00:49:35.521Z,51.20
2023-01-01T00:52:02.335Z,51.70
2023-01-01T00:54:29.154Z,52.60
2023-01-01T00:56:57.536Z,49.90
2023-01-01T00:59:28.702Z,45.40
2023-01-01T01:01:56.251Z,47.50
2023-01-01T01:04:23.526Z,45.60
2023-01-01T01:06:50.339Z,47.70
2023-01-01T01:09:17.109Z,50.20
2023-01-01T01:11:43.847Z,43.60
2023-01-01T01:14:10.747Z,41.40
2023-01-01T01:16:37.634Z,42.00
2023-01-01T01:19:05.932Z,39.90
2023-01-01T01:21:34.607Z,42.80
2023-01-01T01:24:03.421Z,44.50
2023-01-01T01:26:32.653Z,41.90
2023-01-01T01:28:59.965Z,40.00
2023-01-01T01:31:31.627Z,44.70
2023-01-01T01:33:58.438Z,41.70
2023-01-01T01:36:26.313Z,37.60
2023-01-01T01:38:53.666Z,37.80
2023-01-01T01:41:28.996Z,36.40
2023-01-01T01:44:07.359Z,36.60
2023-01-01T01:46:43.139Z,35.90
2023-01-01T01:49:27.799Z,34.90
2023-01-01T01:51:55.712Z,36.20
2023-01-01T01:54:26.487Z,36.00
2023-01-01T01:57:02.571Z,40.10
2023-01-01T01:59:33.785Z,39.70
2023-01-01T02:02:01.731Z,39.60
2023-01-01T02:04:28.808Z,39.90
2023-01-01T02:06:55.974Z,37.70
2023-01-01T02:09:23.175Z,40.20
2023-01-01T02:11:50.002Z,40.00
2023-01-01T02:14:16.770Z,38.60
2023-01-01T02:17:08.746Z,37.40
2023-01-01T02:20:02.504Z,40.10
2023-01-01T02:22:51.006Z,37.80
2023-01-01T02:25:54.947Z,40.40
2023-01-01T02:28:43.273Z,37.40
2023-01-01T02:31:19.640Z,36.20
2023-01-01T02:33:51.662Z,34.40
2023-01-01T02:36:19.934Z,34.50
2023-01-01T02:38:49.560Z,34.00
2023-01-01T02:41:27.643Z,35.30
2023-01-01T02:43:54.813Z,32.40
2023-01-01T02:48:52.697Z,33.50
2023-01-01T02:51:37.432Z,33.60
2023-01-01T02:54:19.665Z,31.40
2023-01-01T02:56:59.580Z,32.50
2023-01-01T03:00:03.241Z,30.00
2023-01-01T03:02:56.215Z,32.40
2023-01-01T03:05:34.606Z,35.50
2023-01-01T03:08:15.978Z,34.80
2023-01-01T03:11:07.536Z,36.30
2023-01-01T03:13:47.717Z,39.50
2023-01-01T03:16:27.020Z,41.60
2023-01-01T03:19:16.569Z,47.20
2023-01-01T03:21:56.074Z,45.40
2023-01-01T03:24:22.813Z,49.80
2023-01-01T03:26:54.389Z,46.20
2023-01-01T03:29:23.589Z,52.40
2023-01-01T03:31:54.048Z,49.00
2023-01-01T03:34:27.353Z,48.70
2023-01-01T03:36:58.241Z,51.20
2023-01-01T03:39:31.758Z,47.60
2023-01-01T03:42:15.607Z,46.50
2023-01-01T03:44:53.973Z,45.90
2023-01-01T03:47:20.870Z,45.90
2023-01-01T03:49:47.933Z,50.00
2023-01-01T03:52:46.987Z,44.70
2023-01-01T03:55:36.959Z,38.60
2023-01-01T03:58:20.315Z,40.20
2023-01-01T04:01:06.348Z,37.40
2023-01-01T04:03:35.467Z,34.60
2023-01-01T04:06:04.056Z,36.00
2023-01-01T04:08:33.768Z,37.80
2023-01-01T04:11:23.466Z,31.90
2023-01-01T04:13:50.241Z,29.50
2023-01-01T04:16:17.016Z,32.70
2023-01-01T04:18:43.818Z,29.30
2023-01-01T04:21:12.676Z,31.10
2023-01-01T04:23:39.443Z,31.40
2023-01-01T04:26:06.319Z,30.40
2023-01-01T04:28:33.003Z,30.50
2023-01-01T04:31:02.903Z,30.50
2023-01-01T04:33:29.617Z,30.40
2023-01-01T04:35:56.366Z,33.20
2023-01-01T04:38:23.079Z,36.10
2023-01-01T04:40:59.755Z,36.50
2023-01-01T04:43:26.517Z,35.70
2023-01-01T04:45:57.752Z,34.80
2023-01-01T04:48:25.538Z,35.10
2023-01-01T04:51:01.330Z,37.50
2023-01-01T04:53:34.294Z,38.10
2023-01-01T04:56:11.334Z,36.50
2023-01-01T04:58:39.607Z,39.60
2023-01-01T05:01:07.430Z,42.90
2023-01-01T05:03:34.668Z,42.60
2023-01-01T05:06:10.187Z,43.10
2023-01-01T05:08:40.421Z,42.70
2023-01-01T05:11:18.873Z,46.20
2023-01-01T05:13:47.466Z,44.50
2023-01-01T05:16:25.549Z,48.90
2023-01-01T05:18:52.662Z,56.40
2023-01-01T05:21:33.081Z,49.00
2023-01-01T05:24:03.147Z,52.90
2023-01-01T05:26:32.515Z,50.70
2023-01-01T05:29:00.483Z,50.20
2023-01-01T05:31:33.480Z,55.30
2023-01-01T05:36:38.841Z,54.40
2023-01-01T05:39:07.859Z,57.20
2023-01-01T05:41:37.480Z,56.30
2023-01-01T05:44:07.187Z,58.00
2023-01-01T05:46:34.625Z,57.90
2023-01-01T05:49:01.506Z,59.70
2023-01-01T05:51:29.680Z,60.30
2023-01-01T05:53:57.820Z,58.60
2023-01-01T05:56:25.141Z,58.50
2023-01-01T05:58:52.068Z,58.70
2023-01-01T06:01:26.990Z,57.90
2023-01-01T06:03:55.829Z,57.50
2023-01-01T06:06:26.673Z,57.50
2023-01-01T06:08:56.314Z,57.70
2023-01-01T06:11:23.687Z,58.10
2023-01-01T06:13:55.255Z,58.40
2023-01-01T06:16:22.258Z,64.20
2023-01-01T06:18:49.233Z,60.20
2023-01-01T06:21:18.731Z,60.80
2023-01-01T06:23:45.812Z,64.60
2023-01-01T06:26:15.085Z,64.50
2023-01-01T06:28:42.848Z,65.40
2023-01-01T06:31:11.164Z,65.30
2023-01-01T06:33:38.946Z,69.70
2023-01-01T06:36:08.348Z,70.00
2023-01-01T06:38:37.876Z,70.70
2023-01-01T06:41:07.304Z,74.20
2023-01-01T06:43:35.830Z,74.90
2023-01-01T06:46:03.607Z,77.70
2023-01-01T06:48:32.213Z,79.50
2023-01-01T06:51:05.007Z,78.30
2023-01-01T06:53:33.341Z,84.10
2023-01-01T06:56:00.168Z,83.40
2023-01-01T06:58:27.114Z,80.00
2023-01-01T07:00:53.884Z,83.20
2023-01-01T07:03:20.729Z,89.20
2023-01-01T07:05:47.616Z,89.70
2023-01-01T07:08:14.498Z,91.40
2023-01-01T07:10:41.200Z,91.40
2023-01-01T07:13:07.924Z,91.70
2023-01-01T07:15:34.753Z,91.10
2023-01-01T07:18:01.503Z,93.60
2023-01-01T07:20:28.259Z,93.30
2023-01-01T07:22:55.078Z,92.10
2023-01-01T07:25:21.871Z,93.00
2023-01-01T07:27:48.636Z,92.40
2023-01-01T07:30:15.522Z,91.80
2023-01-01T07:32:42.283Z,93.00
2023-01-01T07:35:09.319Z,91.00
2023-01-01T07:37:36.324Z,93.40
2023-01-01T07:40:03.160Z,91.90
2023-01-01T07:42:30.213Z,90.40
2023-01-01T07:44:56.969Z,91.80
2023-01-01T07:47:25.814Z,91.90
2023-01-01T07:49:52.876Z,92.90
2023-01-01T07:52:19.681Z,95.90
2023-01-01T07:54:46.495Z,93.50
2023-01-01T07:57:13.340Z,93.20
2023-01-01T07:59:40.146Z,92.20
2023-01-01T08:02:07.207Z,90.10
2023-01-01T08:04:34.047Z,93.00
2023-01-01T08:07:00.809Z,92.60
2023-01-01T08:09:27.546Z,94.10
2023-01-01T08:11:54.330Z,99.90
2023-01-01T08:14:21.236Z,96.80
2023-01-01T08:16:47.982Z,99.60
2023-01-01T08:19:14.709Z,95.80
2023-01-01T08:21:41.497Z,99.10
2023-01-01T08:24:08.495Z,97.90
2023-01-01T08:26:36.848Z,99.90
2023-01-01T08:29:05.499Z,98.60
2023-01-01T08:31:33.101Z,99.90
2023-01-01T08:33:59.989Z,99.90
2023-01-01T08:36:26.873Z,99.90
2023-01-01T08:38:53.742Z,99.90
2023-01-01T08:41:20.524Z,99.90
2023-01-01T08:43:47.338Z,99.90
2023-01-01T08:46:14.405Z,99.90
2023-01-01T08:48:41.405Z,99.90
2023-01-01T08:51:09.694Z,99.90
2023-01-01T08:53:36.931Z,99.90
2023-01-01T08:56:09.105Z,99.90
2023-01-01T08:58:37.240Z,99.90
2023-01-01T09:01:04.847Z,99.90
2023-01-01T09:03:31.777Z,99.90
2023-01-01T09:05:58.835Z,99.90
2023-01-01T09:08:26.444Z,99.90
2023-01-01T09:10:57.390Z,99.90
2023-01-01T09:13:24.285Z,99.90
2023-01-01T09:15:51.255Z,99.90
2023-01-01T09:18:18.101Z,99.90
2023-01-01T09:20:45.236Z,99.90
2023-01-01T09:23:12.800Z,99.90
2023-01-01T09:25:40.276Z,99.90
2023-01-01T09:28:11.303Z,99.90
2023-01-01T09:30:38.242Z,99.90
2023-01-01T09:33:05.187Z,99.90
2023-01-01T09:35:32.012Z,99.90
2023-01-01T09:37:58.820Z,99.90
2023-01-01T09:40:32.933Z,99.90
2023-01-01T09:43:29.596Z,99.90
2023-01-01T09:45:58.953Z,99.90
2023-01-01T09:48:31.363Z,99.90
2023-01-01T09:51:01.106Z,99.90
2023-01-01T09:53:45.368Z,99.90
2023-01-01T09:56:20.568Z,99.90
2023-01-01T09:58:47.330Z,99.90
2023-01-01T10:01:31.725Z,99.90
2023-01-01T10:04:23.443Z,99.90
2023-01-01T10:07:19.912Z,99.90
2023-01-01T10:10:25.065Z,99.90
2023-01-01T10:13:04.513Z,99.90
2023-01-01T10:15:34.648Z,99.90
2023-01-01T10:18:06.007Z,99.90
2023-01-01T10:20:42.489Z,99.90
2023-01-01T10:23:26.509Z,99.90
2023-01-01T10:25:57.139Z,99.90
2023-01-01T10:29:03.768Z,99.90
2023-01-01T10:31:36.162Z,99.90
2023-01-01T10:34:26.461Z,99.90
2023-01-01T10:36:56.594Z,99.90
2023-01-01T10:39:24.245Z,99.90
2023-01-01T10:41:52.151Z,99.90
2023-01-01T10:44:29.433Z,99.90
2023-01-01T10:47:04.544Z,99.90
2023-01-01T10:49:31.293Z,99.90
2023-01-01T10:51:59.281Z,99.90
2023-01-01T10:54:36.788Z,99.90
2023-01-01T10:57:22.390Z,99.90
2023-01-01T10:59:54.257Z,99.90
2023-01-01T11:02:21.732Z,99.90
2023-01-01T11:04:50.759Z,99.90
2023-01-01T11:07:33.897Z,99.90
2023-01-01T11:10:06.227Z,99.90
2023-01-01T11:13:04.223Z,99.90
2023-01-01T11:15:40.213Z,99.90
2023-01-01T11:18:13.405Z,99.90
2023-01-01T11:20:41.448Z,99.90
2023-01-01T11:23:26.439Z,99.90
2023-01-01T11:26:04.994Z,99.90
2023-01-01T11:28:34.940Z,99.90
2023-01-01T11:31:12.756Z,99.90
2023-01-01T11:33:56.581Z,99.90
2023-01-01T11:36:28.973Z,99.90
2023-01-01T11:39:27.080Z,99.90
2023-01-01T11:41:57.023Z,99.90
2023-01-01T11:44:40.983Z,99.90
2023-01-01T11:47:19.939Z,99.90
2023-01-01T11:49:52.988Z,99.90
2023-01-01T11:52:38.653Z,99.90
2023-01-01T11:55:31.516Z,99.90
2023-01-01T11:58:29.626Z,99.90
2023-01-01T12:01:00.992Z,99.90
2023-01-01T12:03:49.197Z,99.90
2023-01-01T12:06:41.598Z,99.90
2023-01-01T12:09:37.246Z,99.90
2023-01-01T12:12:13.181Z,99.90
2023-01-01T12:14:42.710Z,99.90
2023-01-01T12:17:39.790Z,99.90
2023-01-01T12:20:21.650Z,99.90
2023-01-01T12:22:48.853Z,99.90
2023-01-01T12:25:19.538Z,99.90
2023-01-01T12:27:46.339Z,99.90
2023-01-01T12:30:18.512Z,99.90
2023-01-01T12:33:16.146Z,99.90
2023-01-01T12:36:04.281Z,99.90
2023-01-01T12:38:40.083Z,99.90
2023-01-01T12:41:15.788Z,99.90
2023-01-01T12:43:43.207Z,99.90
2023-01-01T12:46:17.428Z,99.90
2023-01-01T12:49:25.830Z,99.90
2023-01-01T12:52:20.324Z,99.90
2023-01-01T12:55:11.781Z,99.90
2023-01-01T12:57:45.997Z,99.90
2023-01-01T13:00:18.916Z,98.30
2023-01-01T13:02:50.875Z,97.40
2023-01-01T13:05:23.451Z,96.60
2023-01-01T13:07:56.997Z,95.70
2023-01-01T13:10:49.034Z,95.80
2023-01-01T13:13:16.659Z,97.50
2023-01-01T13:15:54.265Z,97.90
2023-01-01T13:18:24.707Z,94.90
2023-01-01T13:23:46.593Z,98.20
2023-01-01T13:26:20.340Z,96.90
2023-01-01T13:28:58.865Z,95.90
2023-01-01T13:31:43.579Z,98.90
2023-01-01T13:35:01.538Z,96.30
2023-01-01T13:37:41.901Z,98.30
2023-01-01T13:40:14.460Z,99.90
2023-01-01T13:43:06.687Z,99.90
2023-01-01T13:46:10.583Z,99.90
2023-01-01T13:49:01.466Z,99.90
2023-01-01T13:52:09.351Z,99.90
2023-01-01T13:54:40.012Z,99.90
2023-01-01T13:57:38.749Z,99.90
2023-01-01T14:00:22.363Z,99.90
2023-01-01T14:03:01.848Z,99.90
2023-01-01T14:05:55.935Z,99.90
2023-01-01T14:08:32.274Z,99.90
2023-01-01T14:11:01.959Z,98.70
2023-01-01T14:13:42.886Z,99.90
2023-01-01T14:16:14.707Z,99.90
2023-01-01T14:18:55.592Z,99.90
2023-01-01T14:21:26.476Z,99.90
2023-01-01T14:23:56.709Z,99.90
2023-01-01T14:26:26.176Z,99.90
2023-01-01T14:28:58.638Z,99.70
2023-01-01T14:31:32.108Z,99.90
2023-01-01T14:33:58.930Z,99.90
2023-01-01T14:36:29.972Z,99.90
2023-01-01T14:39:02.841Z,99.90
2023-01-01T14:41:32.671Z,99.90
2023-01-01T14:44:06.187Z,99.90
2023-01-01T14:46:33.315Z,99.90
2023-01-01T14:49:09.909Z,99.90
2023-01-01T14:51:44.081Z,99.90
2023-01-01T14:54:17.036Z,99.90
2023-01-01T14:56:48.140Z,99.90
2023-01-01T14:59:18.774Z,99.90
2023-01-01T15:01:45.660Z,99.90
2023-01-01T15:04:22.882Z,99.90
2023-01-01T15:06:57.467Z,99.90
2023-01-01T15:12:02.124Z,99.90
2023-01-01T15:14:45.631Z,99.90
2023-01-01T15:17:18.013Z,99.90
2023-01-01T15:19:47.219Z,99.90
2023-01-01T15:22:37.276Z,99.90
2023-01-01T15:25:04.365Z,99.90
2023-01-01T15:27:33.781Z,99.90
2023-01-01T15:30:01.795Z,99.90
2023-01-01T15:32:37.970Z,99.90
2023-01-01T15:35:07.918Z,99.90
2023-01-01T15:37:48.239Z,99.90
2023-01-01T15:40:15.084Z,99.90
2023-01-01T15:43:04.897Z,99.90
2023-01-01T15:45:42.032Z,99.90
2023-01-01T15:48:11.577Z,99.90
2023-01-01T15:50:58.602Z,99.90
2023-01-01T15:53:27.831Z,99.90
2023-01-01T15:55:59.523Z,99.90
2023-01-01T15:58:43.372Z,99.90
2023-01-01T16:01:18.984Z,99.90
2023-01-01T16:03:48.618Z,99.90
2023-01-01T16:06:17.958Z,99.90
2023-01-01T16:08:44.816Z,99.90
2023-01-01T16:11:12.369Z,99.90
2023-01-01T16:13:39.133Z,99.90
2023-01-01T16:16:22.879Z,99.90
2023-01-01T16:18:49.661Z,99.90
2023-01-01T16:21:37.337Z,99.90
2023-01-01T16:24:04.177Z,99.90
2023-01-01T16:26:30.948Z,99.90
2023-01-01T16:28:57.664Z,99.90
2023-01-01T16:31:28.516Z,99.90
2023-01-01T16:33:57.643Z,99.90
2023-01-01T16:36:25.016Z,99.90
2023-01-01T16:38:51.710Z,99.90
2023-01-01T16:41:19.257Z,99.90
2023-01-01T16:43:47.343Z,99.90
2023-01-01T16:46:15.186Z,99.90
2023-01-01T16:48:42.099Z,99.90
2023-01-01T16:51:18.598Z,99.90
2023-01-01T16:53:45.747Z,99.90
2023-01-01T16:56:13.000Z,99.90
2023-01-01T16:58:49.478Z,99.90
2023-01-01T17:01:17.509Z,99.90
2023-01-01T17:03:44.365Z,99.90
2023-01-01T17:06:11.271Z,99.90
2023-01-01T17:08:38.801Z,99.90
2023-01-01T17:11:10.125Z,99.90
2023-01-01T17:13:37.076Z,99.90
2023-01-01T17:16:04.113Z,99.90
2023-01-01T17:19:12.845Z,99.90
2023-01-01T17:21:18.339Z,99.90
2023-01-01T17:23:45.353Z,99.90
2023-01-01T17:26:15.990Z,99.90
2023-01-01T17:28:43.984Z,99.90
2023-01-01T17:31:13.494Z,99.90
2023-01-01T17:33:41.159Z,99.90
2023-01-01T17:36:10.546Z,99.90
2023-01-01T17:38:37.932Z,99.90
2023-01-01T17:41:07.213Z,99.90
2023-01-01T17:43:36.681Z,99.90
2023-01-01T17:46:08.570Z,99.90
2023-01-01T17:48:35.358Z,99.90
2023-01-01T17:51:02.438Z,99.90
2023-01-01T17:53:29.184Z,99.90
2023-01-01T17:55:56.209Z,99.90
2023-01-01T17:58:23.482Z,99.90
2023-01-01T18:00:50.723Z,99.90
2023-01-01T18:03:19.147Z,99.90
2023-01-01T18:05:46.038Z,99.90
2023-01-01T18:08:12.785Z,99.90
2023-01-01T18:10:39.516Z,99.90
2023-01-01T18:13:06.361Z,99.90
2023-01-01T18:15:37.247Z,99.90
2023-01-01T18:18:04.184Z,99.90
2023-01-01T18:20:30.955Z,99.90
2023-01-01T18:22:57.688Z,99.90
2023-01-01T18:25:24.463Z,99.90
2023-01-01T18:27:57.164Z,99.90
2023-01-01T18:30:24.318Z,99.90
2023-01-01T18:32:51.131Z,99.90
2023-01-01T18:35:17.883Z,99.90
2023-01-01T18:37:44.636Z,99.90
2023-01-01T18:40:17.297Z,99.90
2023-01-01T18:43:03.264Z,99.90
2023-01-01T18:45:30.095Z,99.90
2023-01-01T18:47:56.832Z,99.90
2023-01-01T18:50:27.509Z,99.90
2023-01-01T18:53:18.957Z,99.90
2023-01-01T18:55:47.887Z,99.90
2023-01-01T18:58:21.012Z,99.90
2023-01-01T19:00:49.100Z,99.90
2023-01-01T19:03:18.866Z,99.90
2023-01-01T19:05:47.713Z,99.90
2023-01-01T19:08:17.611Z,99.90
2023-01-01T19:10:57.602Z,99.90
2023-01-01T19:13:31.809Z,99.90
2023-01-01T19:16:22.445Z,99.90
2023-01-01T19:18:51.679Z,99.90
2023-01-01T19:21:23.809Z,99.90
2023-01-01T19:23:58.829Z,99.90
2023-01-01T19:26:29.565Z,99.90
2023-01-01T19:28:59.753Z,99.90
2023-01-01T19:31:26.559Z,99.90
2023-01-01T19:33:53.545Z,99.90
2023-01-01T19:36:20.845Z,99.90
2023-01-01T19:38:47.595Z,99.90
2023-01-01T19:41:14.435Z,99.90
2023-01-01T19:43:41.163Z,99.90
2023-01-01T19:46:08.028Z,99.90
2023-01-01T19:48:35.015Z,99.90
2023-01-01T19:51:01.902Z,99.90
2023-01-01T19:53:28.731Z,99.90
2023-01-01T19:55:55.485Z,99.90
2023-01-01T19:58:23.132Z,99.90
2023-01-01T20:00:50.461Z,99.90
2023-01-01T20:06:04.947Z,99.90
2023-01-01T20:08:32.396Z,99.90
2023-01-01T20:11:00.233Z,99.90
2023-01-01T20:13:27.363Z,99.90
2023-01-01T20:15:54.419Z,99.90
2023-01-01T20:18:21.243Z,99.90
2023-01-01T20:21:06.791Z,99.90
2023-01-01T20:23:33.555Z,99.90
2023-01-01T20:26:00.526Z,99.90
2023-01-01T20:28:45.818Z,99.90
2023-01-01T20:31:12.717Z,99.90
2023-01-01T20:33:39.534Z,99.90
2023-01-01T20:36:25.005Z,99.90
2023-01-01T20:38:51.783Z,99.90
2023-01-01T20:41:25.006Z,99.90
2023-01-01T20:43:56.519Z,99.90
2023-01-01T20:46:25.367Z,99.90
2023-01-01T20:48:53.470Z,99.90
2023-01-01T20:51:20.342Z,99.90
2023-01-01T20:53:47.171Z,99.90
2023-01-01T20:56:13.926Z,99.90
2023-01-01T20:58:47.878Z,99.90
2023-01-01T21:01:16.185Z,99.90
2023-01-01T21:03:43.090Z,99.90
2023-01-01T21:06:10.031Z,99.90
2023-01-01T21:08:36.780Z,99.90
2023-01-01T21:11:03.694Z,99.90
2023-01-01T21:13:30.744Z,99.90
2023-01-01T21:16:07.067Z,99.90
2023-01-01T21:18:35.031Z,99.90
2023-01-01T21:21:01.946Z,99.90
2023-01-01T21:23:29.639Z,99.90
2023-01-01T21:25:57.299Z,99.90
2023-01-01T21:28:27.821Z,99.90
2023-01-01T21:30:56.476Z,99.90
2023-01-01T21:33:28.948Z,99.90
2023-01-01T21:35:56.482Z,99.90
2023-01-01T21:38:26.051Z,99.90
2023-01-01T21:41:00.091Z,99.90
2023-01-01T21:43:35.835Z,99.90
2023-01-01T21:46:36.387Z,99.90
2023-01-01T21:49:14.667Z,99.90
2023-01-01T21:51:54.561Z,99.90
2023-01-01T21:54:37.734Z,99.90
2023-01-01T21:57:14.969Z,99.90
2023-01-01T21:59:46.914Z,99.90
2023-01-01T22:02:13.637Z,99.90
2023-01-01T22:04:46.028Z,99.90
2023-01-01T22:07:55.879Z,99.90
2023-01-01T22:10:24.015Z,99.90
2023-01-01T22:12:57.095Z,99.90
2023-01-01T22:15:26.837Z,99.90
2023-01-01T22:18:15.476Z,99.90
2023-01-01T22:20:44.162Z,99.90
2023-01-01T22:23:24.541Z,99.90
2023-01-01T22:25:52.821Z,99.90
2023-01-01T22:28:26.729Z,99.90
2023-01-01T22:30:57.849Z,99.90
2023-01-01T22:33:33.385Z,99.90
2023-01-01T22:36:00.350Z,99.90
2023-01-01T22:38:33.741Z,99.90
2023-01-01T22:41:01.546Z,99.90
2023-01-01T22:43:35.048Z,99.90
2023-01-01T22:46:16.731Z,99.90
2023-01-01T22:48:43.795Z,99.90
2023-01-01T22:51:18.942Z,99.90
2023-01-01T22:53:46.012Z,99.90
2023-01-01T22:56:12.894Z,99.90
2023-01-01T22:58:39.807Z,99.90
2023-01-01T23:01:07.093Z,99.90
2023-01-01T23:03:34.059Z,99.90
2023-01-01T23:06:01.524Z,99.90
2023-01-01T23:08:30.177Z,99.90
2023-01-01T23:10:59.527Z,99.90
2023-01-01T23:13:44.872Z,99.90
2023-01-01T23:16:11.692Z,99.90
2023-01-01T23:18:38.733Z,99.90
2023-01-01T23:21:10.636Z,99.90
2023-01-01T23:23:38.976Z,99.90
2023-01-01T23:26:06.655Z,99.90
2023-01-01T23:28:34.104Z,99.90
2023-01-01T23:31:03.594Z,99.90
2023-01-01T23:33:31.545Z,99.90
2023-01-01T23:35:59.298Z,99.90
2023-01-01T23:38:28.256Z,99.90
2023-01-01T23:40:55.208Z,99.90
2023-01-01T23:43:22.014Z,99.90
2023-01-01T23:45:49.164Z,99.90
2023-01-01T23:48:16.630Z,99.90
2023-01-01T23:50:43.535Z,99.90
2023-01-01T23:53:10.318Z,99.90
2023-01-01T23:55:37.207Z,99.90
2023-01-01T23:58:04.060Z,99.90
